createdAt,value
2018-12-27T00:01:25.424Z,26.82
2018-12-27T00:04:06.274Z,26.17
2018-12-27T00:06:46.896Z,26.05
2018-12-27T00:09:27.932Z,25.48
2018-12-27T00:12:08.558Z,27.15
2018-12-27T00:14:49.258Z,28.50
2018-12-27T00:17:29.775Z,26.00
2018-12-27T00:20:10.312Z,27.27
2018-12-27T00:22:51.191Z,28.38
2018-12-27T00:25:31.719Z,28.73
2018-12-27T00:28:12.124Z,29.32
2018-12-27T00:30:52.881Z,28.12
2018-12-27T00:33:33.702Z,28.90
2018-12-27T00:36:14.328Z,29.42
2018-12-27T00:38:55.748Z,28.07
2018-12-27T00:41:36.517Z,28.60
2018-12-27T00:44:17.305Z,29.65
2018-12-27T00:46:58.198Z,29.48
2018-12-27T00:53:35.329Z,29.87
2018-12-27T00:56:16.104Z,28.87
2018-12-27T00:58:56.963Z,29.65
2018-12-27T01:01:37.819Z,29.87
2018-12-27T01:04:18.484Z,29.45
2018-12-27T01:06:59.681Z,30.62
2018-12-27T01:09:40.206Z,29.60
2018-12-27T01:12:20.774Z,30.30
2018-12-27T01:15:01.368Z,31.25
2018-12-27T01:17:42.257Z,30.12
2018-12-27T01:20:23.166Z,29.67
2018-12-27T01:23:03.700Z,29.52
2018-12-27T01:25:44.504Z,28.45
2018-12-27T01:28:25.374Z,29.23
2018-12-27T01:31:06.240Z,28.40
2018-12-27T01:33:46.773Z,28.85
2018-12-27T01:36:28.036Z,28.98
2018-12-27T01:39:08.953Z,30.52
2018-12-27T01:41:49.670Z,29.80
2018-12-27T01:44:30.712Z,29.55
2018-12-27T01:47:11.701Z,30.92
2018-12-27T01:49:52.314Z,30.72
2018-12-27T01:52:32.977Z,30.57
2018-12-27T01:55:13.798Z,30.27
2018-12-27T01:57:55.077Z,30.30
2018-12-27T02:03:48.208Z,30.43
2018-12-27T02:06:28.806Z,30.20
2018-12-27T02:09:09.883Z,30.02
2018-12-27T02:11:50.693Z,28.85
2018-12-27T02:14:31.402Z,29.70
2018-12-27T02:17:12.230Z,30.85
2018-12-27T02:19:53.303Z,29.42
2018-12-27T02:22:34.117Z,27.90
2018-12-27T02:25:14.724Z,28.42
2018-12-27T02:27:55.367Z,27.85
2018-12-27T02:30:36.244Z,26.97
2018-12-27T02:33:17.147Z,26.42
2018-12-27T02:38:57.689Z,28.93
2018-12-27T02:41:38.695Z,26.45
2018-12-27T02:44:19.654Z,28.23
2018-12-27T02:47:00.447Z,27.58
2018-12-27T02:49:41.207Z,25.17
2018-12-27T02:52:22.074Z,26.23
2018-12-27T02:55:02.998Z,27.20
2018-12-27T02:57:44.148Z,27.30
2018-12-27T03:00:25.069Z,25.52
2018-12-27T03:03:05.653Z,25.43
2018-12-27T03:05:45.879Z,24.95
2018-12-27T03:08:27.075Z,26.02
2018-12-27T03:11:07.848Z,25.50
2018-12-27T03:13:48.755Z,25.55
2018-12-27T03:16:29.744Z,26.62
2018-12-27T03:19:10.524Z,25.33
2018-12-27T03:21:51.665Z,25.77
2018-12-27T03:24:32.861Z,25.92
2018-12-27T03:27:13.704Z,24.77
2018-12-27T03:29:54.183Z,25.93
2018-12-27T03:32:34.805Z,23.83
2018-12-27T03:35:15.559Z,25.50
2018-12-27T03:37:56.055Z,24.87
2018-12-27T03:40:37.460Z,27.00
2018-12-27T03:43:18.191Z,26.70
2018-12-27T03:45:58.829Z,26.00
2018-12-27T03:48:39.329Z,26.52
2018-12-27T03:51:08.433Z,23.35
2018-12-27T03:53:56.542Z,23.77
2018-12-27T03:56:44.954Z,24.60
2018-12-27T03:59:33.316Z,25.37
2018-12-27T04:02:21.949Z,25.50
2018-12-27T04:05:10.311Z,25.85
2018-12-27T04:07:58.649Z,25.88
2018-12-27T04:10:47.071Z,25.85
2018-12-27T04:13:35.692Z,26.27
2018-12-27T04:16:23.681Z,25.25
2018-12-27T04:19:11.723Z,26.40
2018-12-27T04:21:59.959Z,26.00
2018-12-27T04:24:48.341Z,26.20
2018-12-27T04:27:36.351Z,27.02
2018-12-27T04:30:16.919Z,26.85
2018-12-27T04:32:57.184Z,25.88
2018-12-27T04:35:38.192Z,25.50
2018-12-27T04:38:19.324Z,24.92
2018-12-27T04:40:59.684Z,26.60
2018-12-27T04:43:28.971Z,27.17
2018-12-27T04:46:16.988Z,26.70
2018-12-27T04:49:04.963Z,25.73
2018-12-27T04:51:53.235Z,25.60
2018-12-27T04:54:41.229Z,25.82
2018-12-27T04:57:43.032Z,25.70
2018-12-27T05:00:19.258Z,25.52
2018-12-27T05:03:07.715Z,25.52
2018-12-27T05:05:55.999Z,25.95
2018-12-27T05:08:44.010Z,26.23
2018-12-27T05:11:32.284Z,25.63
2018-12-27T05:14:20.930Z,25.57
2018-12-27T05:17:09.237Z,25.25
2018-12-27T05:19:57.496Z,25.48
2018-12-27T05:22:45.711Z,25.92
2018-12-27T05:25:33.725Z,24.82
2018-12-27T05:28:21.712Z,24.90
2018-12-27T05:31:09.692Z,25.45
2018-12-27T05:33:57.735Z,24.67
2018-12-27T05:36:45.741Z,24.60
2018-12-27T05:39:34.048Z,24.13
2018-12-27T05:42:22.384Z,24.35
2018-12-27T05:45:10.436Z,22.93
2018-12-27T05:47:58.991Z,23.87
2018-12-27T05:50:46.961Z,23.60
2018-12-27T05:53:16.119Z,25.27
2018-12-27T05:56:04.100Z,23.95
2018-12-27T05:58:52.375Z,23.70
2018-12-27T06:01:40.589Z,24.12
2018-12-27T06:04:33.696Z,24.10
2018-12-27T06:07:18.363Z,23.92
2018-12-27T06:10:06.431Z,24.55
2018-12-27T06:12:54.464Z,24.47
2018-12-27T06:15:42.225Z,23.22
2018-12-27T06:18:11.119Z,23.62
2018-12-27T06:20:59.327Z,24.55
2018-12-27T06:23:47.568Z,23.20
2018-12-27T06:26:36.197Z,23.62
2018-12-27T06:29:05.071Z,23.95
2018-12-27T06:31:34.247Z,24.23
2018-12-27T06:34:22.275Z,23.90
2018-12-27T06:37:10.267Z,24.25
2018-12-27T06:39:58.246Z,26.45
2018-12-27T06:42:46.503Z,27.45
2018-12-27T06:45:34.520Z,26.48
2018-12-27T06:48:22.585Z,25.55
2018-12-27T06:51:10.556Z,24.17
2018-12-27T06:53:58.848Z,25.43
2018-12-27T06:56:46.839Z,25.30
2018-12-27T06:59:34.823Z,24.70
2018-12-27T07:02:23.077Z,24.40
2018-12-27T07:05:11.152Z,23.02
2018-12-27T07:07:59.423Z,23.63
2018-12-27T07:10:47.413Z,24.25
2018-12-27T07:13:35.960Z,24.55
2018-12-27T07:16:23.976Z,24.80
2018-12-27T07:19:11.963Z,23.62
2018-12-27T07:21:59.943Z,23.47
2018-12-27T07:24:47.946Z,23.25
2018-12-27T07:27:35.912Z,24.05
2018-12-27T07:30:17.112Z,24.23
2018-12-27T07:32:57.987Z,24.10
2018-12-27T07:35:39.002Z,23.52
2018-12-27T07:38:20.183Z,24.10
2018-12-27T07:41:00.860Z,24.40
2018-12-27T07:43:41.871Z,25.08
2018-12-27T07:46:22.509Z,24.40
2018-12-27T07:49:03.797Z,26.50
2018-12-27T07:51:44.922Z,26.37
2018-12-27T07:54:25.639Z,26.75
2018-12-27T07:57:06.779Z,26.97
2018-12-27T07:59:47.948Z,26.97
2018-12-27T08:02:28.922Z,26.15
2018-12-27T08:05:10.351Z,26.77
2018-12-27T08:07:50.944Z,26.80
2018-12-27T08:10:31.892Z,28.38
2018-12-27T08:13:12.771Z,28.87
2018-12-27T08:15:53.508Z,29.65
2018-12-27T08:18:34.284Z,28.12
2018-12-27T08:21:15.119Z,27.95
2018-12-27T08:23:56.408Z,27.27
2018-12-27T08:26:37.825Z,28.57
2018-12-27T08:29:18.273Z,29.03
2018-12-27T08:31:59.281Z,30.57
2018-12-27T08:34:39.971Z,30.80
2018-12-27T08:37:21.341Z,29.42
2018-12-27T08:40:02.375Z,30.00
2018-12-27T08:42:43.435Z,30.82
2018-12-27T08:45:24.328Z,31.10
2018-12-27T08:48:05.376Z,30.57
2018-12-27T08:50:45.788Z,29.37
2018-12-27T08:53:26.683Z,27.67
2018-12-27T08:56:07.047Z,26.42
2018-12-27T08:58:47.998Z,26.87
2018-12-27T09:01:29.271Z,28.32
2018-12-27T09:04:09.824Z,26.52
2018-12-27T09:06:50.486Z,24.72
2018-12-27T09:09:31.695Z,25.90
2018-12-27T09:12:12.435Z,25.95
2018-12-27T09:14:52.895Z,25.25
2018-12-27T09:17:33.920Z,25.23
2018-12-27T09:20:15.282Z,27.60
2018-12-27T09:22:56.305Z,28.55
2018-12-27T09:25:37.567Z,26.20
2018-12-27T09:28:18.027Z,25.62
2018-12-27T09:30:59.101Z,26.00
2018-12-27T09:33:40.171Z,26.10
2018-12-27T09:36:21.378Z,25.82
2018-12-27T09:39:02.294Z,27.45
2018-12-27T09:41:43.276Z,26.42
2018-12-27T09:44:24.260Z,26.23
2018-12-27T09:47:05.068Z,26.90
2018-12-27T09:49:46.071Z,27.52
2018-12-27T09:52:26.785Z,27.80
2018-12-27T10:01:21.509Z,28.45
2018-12-27T10:04:02.144Z,29.80
2018-12-27T10:06:43.028Z,28.95
2018-12-27T10:09:24.240Z,29.10
2018-12-27T10:12:05.031Z,28.32
2018-12-27T10:14:45.621Z,27.67
2018-12-27T10:17:26.447Z,28.77
2018-12-27T10:19:55.399Z,27.40
2018-12-27T10:22:43.693Z,26.35
2018-12-27T10:25:31.695Z,27.73
2018-12-27T10:28:12.056Z,26.10
2018-12-27T10:30:59.571Z,27.90
2018-12-27T10:33:35.930Z,28.38
2018-12-27T10:36:17.008Z,28.67
2018-12-27T10:38:57.505Z,30.17
2018-12-27T10:41:38.172Z,30.20
2018-12-27T10:44:18.933Z,30.57
2018-12-27T10:46:59.667Z,29.93
2018-12-27T10:49:40.287Z,29.77
2018-12-27T10:52:21.111Z,29.48
2018-12-27T10:55:01.631Z,28.47
2018-12-27T10:57:42.378Z,28.27
2018-12-27T11:00:11.907Z,29.65
2018-12-27T11:03:00.161Z,28.75
2018-12-27T11:05:48.852Z,27.75
2018-12-27T11:08:37.968Z,27.05
2018-12-27T11:11:26.286Z,28.05
2018-12-27T11:14:14.265Z,27.30
2018-12-27T11:17:02.287Z,28.20
2018-12-27T11:19:50.284Z,28.92
2018-12-27T11:22:38.865Z,28.65
2018-12-27T11:25:27.088Z,28.95
2018-12-27T11:28:14.670Z,28.87
2018-12-27T11:34:03.846Z,32.30
2018-12-27T11:36:44.972Z,30.57
2018-12-27T11:39:25.778Z,30.52
2018-12-27T11:42:06.841Z,29.90
2018-12-27T11:44:47.330Z,29.37
2018-12-27T11:47:27.835Z,29.00
2018-12-27T11:50:09.773Z,29.82
2018-12-27T11:52:50.367Z,28.60
2018-12-27T11:55:31.151Z,28.23
2018-12-27T11:58:11.853Z,26.75
2018-12-27T12:00:52.868Z,27.15
2018-12-27T12:03:35.635Z,27.50
2018-12-27T12:06:17.888Z,28.43
2018-12-27T12:08:58.828Z,29.23
2018-12-27T12:11:40.162Z,31.00
2018-12-27T12:14:22.267Z,29.85
2018-12-27T12:17:03.203Z,31.95
2018-12-27T12:19:44.042Z,30.08
2018-12-27T12:22:24.904Z,30.70
2018-12-27T12:25:05.712Z,31.12
2018-12-27T12:27:46.591Z,31.40
2018-12-27T12:30:27.555Z,31.33
2018-12-27T12:33:08.615Z,31.90
2018-12-27T12:35:51.534Z,32.20
2018-12-27T12:38:35.560Z,32.00
2018-12-27T12:41:16.204Z,32.98
2018-12-27T12:43:57.224Z,32.13
2018-12-27T12:46:39.080Z,33.50
2018-12-27T12:49:19.821Z,34.10
2018-12-27T12:52:00.669Z,33.53
2018-12-27T12:54:41.111Z,32.93
2018-12-27T12:57:22.540Z,34.45
2018-12-27T13:00:03.667Z,34.88
2018-12-27T13:02:44.003Z,35.73
2018-12-27T13:05:24.543Z,34.00
2018-12-27T13:08:05.513Z,34.35
2018-12-27T13:10:46.292Z,34.60
2018-12-27T13:13:26.903Z,33.30
2018-12-27T13:16:07.719Z,33.23
2018-12-27T13:18:48.281Z,34.78
2018-12-27T13:21:29.256Z,33.85
2018-12-27T13:24:10.558Z,33.95
2018-12-27T13:26:51.460Z,36.40
2018-12-27T13:29:32.181Z,36.20
2018-12-27T13:32:13.459Z,33.45
2018-12-27T13:34:54.362Z,33.90
2018-12-27T13:37:35.036Z,34.63
2018-12-27T13:40:15.439Z,35.50
2018-12-27T13:42:56.228Z,34.92
2018-12-27T13:45:36.807Z,45.83
2018-12-27T13:48:17.690Z,30.75
2018-12-27T13:50:58.647Z,32.55
2018-12-27T13:53:39.253Z,30.60
2018-12-27T13:56:19.964Z,30.60
2018-12-27T13:59:00.473Z,28.95
2018-12-27T14:01:41.155Z,28.55
2018-12-27T14:04:21.903Z,29.52
2018-12-27T14:07:02.888Z,29.67
2018-12-27T14:09:43.542Z,36.38
2018-12-27T14:12:23.863Z,34.75
2018-12-27T14:15:04.576Z,35.45
2018-12-27T14:17:45.723Z,30.50
2018-12-27T14:20:26.358Z,31.85
2018-12-27T14:23:06.977Z,32.30
2018-12-27T14:25:47.368Z,32.60
2018-12-27T14:28:28.038Z,33.98
2018-12-27T14:31:08.368Z,34.00
2018-12-27T14:33:49.455Z,34.70
2018-12-27T14:36:29.810Z,37.23
2018-12-27T14:39:10.616Z,33.90
2018-12-27T14:41:51.972Z,34.00
2018-12-27T14:44:32.521Z,33.80
2018-12-27T14:47:13.215Z,33.05
2018-12-27T14:49:53.623Z,33.85
2018-12-27T14:52:34.587Z,34.00
2018-12-27T14:55:15.516Z,33.73
2018-12-27T14:57:56.664Z,33.70
2018-12-27T15:00:37.123Z,32.88
2018-12-27T15:03:17.900Z,33.45
2018-12-27T15:05:58.743Z,32.83
2018-12-27T15:08:39.088Z,32.58
2018-12-27T15:11:20.199Z,33.05
2018-12-27T15:14:01.514Z,33.47
2018-12-27T15:16:42.648Z,33.73
2018-12-27T15:19:23.463Z,48.95
2018-12-27T15:22:03.953Z,37.17
2018-12-27T15:24:44.670Z,35.40
2018-12-27T15:27:25.458Z,35.70
2018-12-27T15:30:06.691Z,34.35
2018-12-27T15:32:47.051Z,34.92
2018-12-27T15:35:27.735Z,35.55
2018-12-27T15:38:08.747Z,35.15
2018-12-27T15:40:49.878Z,35.73
2018-12-27T15:43:30.628Z,35.55
2018-12-27T15:46:11.876Z,34.80
2018-12-27T15:48:52.787Z,35.05
2018-12-27T15:51:33.360Z,35.25
2018-12-27T15:54:13.824Z,35.63
2018-12-27T15:56:54.441Z,35.80
2018-12-27T15:59:35.168Z,37.00
2018-12-27T16:02:16.009Z,37.25
2018-12-27T16:04:57.365Z,37.83
2018-12-27T16:07:38.651Z,36.35
2018-12-27T16:10:19.393Z,36.80
2018-12-27T16:13:00.037Z,36.10
2018-12-27T16:15:40.932Z,36.83
2018-12-27T16:18:21.547Z,37.95
2018-12-27T16:21:02.411Z,37.65
2018-12-27T16:23:43.849Z,38.73
2018-12-27T16:26:24.349Z,38.90
2018-12-27T16:29:04.851Z,39.67
2018-12-27T16:31:45.976Z,48.15
2018-12-27T16:34:27.111Z,36.73
2018-12-27T16:37:09.187Z,38.23
2018-12-27T16:39:50.581Z,39.63
2018-12-27T16:42:31.233Z,38.20
2018-12-27T16:45:12.327Z,38.10
2018-12-27T16:47:53.032Z,37.75
2018-12-27T16:50:33.624Z,35.75
2018-12-27T16:53:14.480Z,36.10
2018-12-27T16:55:55.299Z,38.02
2018-12-27T16:58:36.347Z,36.50
2018-12-27T17:01:17.099Z,36.28
2018-12-27T17:03:58.084Z,37.10
2018-12-27T17:06:38.623Z,37.60
2018-12-27T17:09:20.779Z,37.65
2018-12-27T17:12:01.741Z,36.75
2018-12-27T17:14:42.808Z,38.53
2018-12-27T17:17:23.685Z,39.80
2018-12-27T17:20:04.784Z,38.40
2018-12-27T17:22:45.488Z,37.83
2018-12-27T17:25:26.145Z,37.85
2018-12-27T17:28:06.971Z,38.67
2018-12-27T17:30:47.556Z,37.10
2018-12-27T17:33:28.523Z,37.23
2018-12-27T17:36:09.238Z,37.55
2018-12-27T17:38:50.287Z,38.38
2018-12-27T17:41:30.684Z,38.60
2018-12-27T17:44:11.178Z,38.47
2018-12-27T17:46:52.029Z,37.65
2018-12-27T17:49:33.356Z,37.35
2018-12-27T17:52:02.147Z,37.80
2018-12-27T18:00:53.534Z,38.92
2018-12-27T18:03:41.524Z,41.05
2018-12-27T18:06:29.560Z,38.73
2018-12-27T18:09:17.822Z,40.90
2018-12-27T18:12:05.904Z,42.00
2018-12-27T18:15:13.085Z,43.68
2018-12-27T18:18:01.132Z,44.08
2018-12-27T18:20:30.334Z,44.13
2018-12-27T18:23:18.643Z,42.73
2018-12-27T18:26:07.258Z,44.18
2018-12-27T18:28:55.318Z,42.83
2018-12-27T18:31:43.679Z,43.65
2018-12-27T18:34:32.047Z,44.93
2018-12-27T18:37:40.733Z,43.90
2018-12-27T18:43:35.976Z,45.28
2018-12-27T18:46:23.957Z,44.63
2018-12-27T18:49:12.422Z,45.12
2018-12-27T18:52:00.695Z,47.05
2018-12-27T18:54:48.723Z,44.65
2018-12-27T18:57:36.972Z,47.17
2018-12-27T19:00:24.941Z,48.57
2018-12-27T19:03:13.021Z,45.52
2018-12-27T19:06:01.001Z,45.50
2018-12-27T19:08:49.265Z,46.48
2018-12-27T19:11:56.955Z,46.90
2018-12-27T19:14:45.320Z,46.53
2018-12-27T19:17:36.584Z,46.08
2018-12-27T19:20:25.370Z,46.13
2018-12-27T19:23:15.773Z,45.90
2018-12-27T19:26:03.768Z,45.98
2018-12-27T19:28:52.507Z,46.75
2018-12-27T19:31:32.954Z,46.98
2018-12-27T19:34:13.723Z,48.05
2018-12-27T19:36:54.461Z,48.40
2018-12-27T19:39:38.348Z,46.00
2018-12-27T19:42:18.724Z,44.75
2018-12-27T19:45:01.444Z,46.00
2018-12-27T19:47:42.394Z,45.48
2018-12-27T19:50:23.778Z,46.45
2018-12-27T19:53:04.338Z,46.50
2018-12-27T19:55:45.029Z,47.43
2018-12-27T19:58:27.140Z,45.78
2018-12-27T20:01:07.599Z,52.15
2018-12-27T20:03:48.695Z,51.05
2018-12-27T20:06:30.584Z,53.65
2018-12-27T20:09:14.017Z,50.63
2018-12-27T20:11:54.479Z,48.73
2018-12-27T20:14:23.332Z,50.40
2018-12-27T20:20:18.691Z,48.68
2018-12-27T20:23:06.967Z,48.45
2018-12-27T20:25:55.037Z,52.95
2018-12-27T20:28:36.381Z,52.35
2018-12-27T20:34:03.763Z,54.27
2018-12-27T20:36:51.811Z,53.75
2018-12-27T20:39:39.833Z,54.35
2018-12-27T20:42:27.828Z,53.87
2018-12-27T20:45:15.863Z,57.65
2018-12-27T20:48:04.124Z,57.67
2018-12-27T20:50:52.220Z,56.33
2018-12-27T20:53:40.433Z,58.70
2018-12-27T20:56:28.425Z,60.80
2018-12-27T20:59:16.428Z,56.05
2018-12-27T21:02:04.504Z,55.33
2018-12-27T21:04:52.468Z,55.70
2018-12-27T21:07:40.752Z,59.13
2018-12-27T21:10:29.289Z,59.50
2018-12-27T21:13:17.827Z,59.90
2018-12-27T21:16:05.878Z,57.40
2018-12-27T21:18:53.895Z,58.08
2018-12-27T21:21:41.881Z,58.57
2018-12-27T21:24:30.214Z,58.75
2018-12-27T21:27:38.748Z,58.15
2018-12-27T21:30:19.371Z,58.78
2018-12-27T21:32:59.969Z,58.78
2018-12-27T21:35:40.806Z,56.23
2018-12-27T21:38:21.757Z,58.55
2018-12-27T21:41:02.155Z,57.58
2018-12-27T21:43:43.061Z,59.23
2018-12-27T21:46:23.535Z,57.80
2018-12-27T21:49:04.505Z,58.33
2018-12-27T21:51:45.324Z,56.33
2018-12-27T21:54:26.031Z,58.87
2018-12-27T21:57:08.281Z,58.23
2018-12-27T21:59:48.924Z,58.55
2018-12-27T22:02:29.876Z,58.90
2018-12-27T22:05:10.962Z,57.85
2018-12-27T22:07:53.771Z,59.03
2018-12-27T22:10:34.599Z,57.55
2018-12-27T22:13:15.581Z,59.58
2018-12-27T22:15:56.986Z,60.25
2018-12-27T22:18:37.976Z,60.40
2018-12-27T22:21:18.557Z,61.25
2018-12-27T22:23:59.317Z,60.12
2018-12-27T22:26:44.826Z,60.03
2018-12-27T22:29:25.196Z,59.53
2018-12-27T22:32:05.965Z,59.65
2018-12-27T22:34:46.400Z,59.63
2018-12-27T22:37:27.540Z,58.27
2018-12-27T22:40:08.092Z,57.10
2018-12-27T22:42:49.057Z,54.38
2018-12-27T22:45:29.574Z,56.18
2018-12-27T22:48:10.376Z,51.53
2018-12-27T22:50:51.452Z,51.97
2018-12-27T22:53:32.384Z,51.85
2018-12-27T22:56:12.858Z,51.18
2018-12-27T22:58:53.336Z,50.38
2018-12-27T23:01:33.992Z,48.68
2018-12-27T23:04:15.373Z,48.85
2018-12-27T23:06:56.172Z,51.53
2018-12-27T23:09:37.273Z,53.28
2018-12-27T23:12:17.821Z,54.27
2018-12-27T23:14:58.417Z,54.20
2018-12-27T23:17:39.371Z,51.37
2018-12-27T23:20:21.631Z,51.85
2018-12-27T23:23:02.742Z,52.35
2018-12-27T23:25:43.477Z,51.02
2018-12-27T23:28:24.013Z,54.80
2018-12-27T23:31:04.612Z,54.42
2018-12-27T23:33:48.063Z,54.58
2018-12-27T23:36:29.216Z,54.63
2018-12-27T23:39:09.604Z,53.70
2018-12-27T23:41:50.397Z,52.85
2018-12-27T23:44:31.501Z,52.48
2018-12-27T23:47:12.661Z,53.30
2018-12-27T23:49:53.280Z,55.23
2018-12-27T23:52:34.196Z,54.58
2018-12-27T23:55:15.389Z,57.05
2018-12-27T23:57:56.344Z,54.77
